Airfield :
LOGIN :

Register | Disclaimer

   EN    FR    IT 

 










Legend :    VFR   Marginal VFR   IFR   Intensive IFR   Very Intensive IFR
Visi :
Ceiling :
>= 8 km
>= 3000ft
5 to 8 km
1000 to 3000 ft
1500m to 5 km
500 to 1000 ft
800 to 1500m
200 to 500 ft
< 800m
< 200 ft
Symbols :   Thunderstorms  Fog  Heavy snow  Heavy precipitations  Wind > 20 kt
SIGMETs :     Misc.  Thunderstorms  Icing  Turbulence  Mountain Waves  Volcanic Ashes







- Airport Elevation : 157 ft
- IATA code : LIL
- Download approach charts


LFQQ - Lille Lesquin

CURRENT METAR :
  • 212100Z AUTO 35008KT 320V020 CAVOK 11/03 Q1028 NOSIG

EXPIRED METARs :
  • 212030Z AUTO 35008KT 320V030 CAVOK 12/03 Q1028 NOSIG
  • 212000Z AUTO 35009KT 320V020 CAVOK 13/03 Q1027 NOSIG
  • 211930Z AUTO 36014KT CAVOK 14/03 Q1027 BECMG 29004KT
  • 211900Z AUTO 36012KT CAVOK 14/02 Q1027 BECMG 29004KT
  • 211830Z AUTO 35013KT 320V020 CAVOK 15/03 Q1027 NOSIG

TAF TAF LFQQ
Valid from the 21 at 18:00 until the 23 at 00:00 UTC


211700Z 2118/2224 35012KT CAVOK
BECMG 2119/2122 29004KT
BECMG 2206/2209 35012KT
ATIS : +33 3 20 16 19 54
No reported NOTAMs for that airfield.



MET'MAP, your aeronautical weather chart ! - Copyright ORBIFLY December 2007 - Disclaimer

ORBIFLY MET'MAP TEAM :

Programming & Development : Alexandra Zaïnal
Concept & Development : Baudouin d'Aumeries
Co-Development & Prog : Marc-Olivier Méhu
Technical & hardware support : Manuel Goepfert

Contact : metmap@orbifly.com




SOURCES & CREDITS :

   NOAA